Terminal Aerodrome Forecast
Issued by NWS

Home | Current Version | Previous Version | Text Only | Print | Product List | Glossary On
Versions: 1 2 3 4 5 6 7 8 9 10 11 12 13
086
FTUS42 TJSJ 301143
TAFJPS
TAF
TJPS 301143Z 3012/3112 05005KT P6SM FEW030
     FM301400 15010KT P6SM VCSH SCT030 SCT050
     FM302330 05005KT P6SM FEW025 SCT070
      AMD NOT SKED TIL 310300=

USA.gov is the U.S. government's official web portal to all federal, state and local government web resources and services.